UAE454 OMDB-VAAH
Flight info
| Callsign | UAE454 |
|---|---|
| Flight time | 2h 10m |
| Altitude | 37000 |
| Route | IVURO M677 LALDO B505 NADSO B524 ALPOR M504 TELEM N893 VASLA VASLA1A |
| Aircraft | A388/J-SADE2E3FGHIJ3J4J5M1RWXY/LB1D1 |
Departure
| Time | 2026-04-26 09:22 |
|---|---|
| Airport | Dubai International Airport (OMDB) |
Arrival
| Time | 2026-04-26 11:32 |
|---|---|
| Airport | Sardar Vallabh Patel International Airport (VAAH) |
| Time | Latitude | Longitude | Altitude | Speed | Heading |
|---|---|---|---|---|---|
| 2026-04-26 08:41 | 25.24531 | 55.37046 | 34 ft | 0 kts | 211° |
| 2026-04-26 09:00 | 25.24536 | 55.37050 | 33 ft | 2 kts | 211° |
| 2026-04-26 09:00 | 25.24553 | 55.37061 | 32 ft | 3 kts | 211° |
| 2026-04-26 09:01 | 25.24571 | 55.37072 | 33 ft | 3 kts | 211° |
| 2026-04-26 09:01 | 25.24587 | 55.37084 | 32 ft | 2 kts | 211° |
| 2026-04-26 09:01 | 25.24600 | 55.37092 | 32 ft | 3 kts | 194° |
| 2026-04-26 09:01 | 25.24616 | 55.37092 | 30 ft | 3 kts | 144° |
| 2026-04-26 09:02 | 25.24630 | 55.37076 | 30 ft | 3 kts | 124° |
| 2026-04-26 09:02 | 25.24638 | 55.37062 | 32 ft | 1 kts | 121° |
| 2026-04-26 09:02 | 25.24639 | 55.37060 | 32 ft | 1 kts | 121° |
| 2026-04-26 09:06 | 25.24635 | 55.37068 | 33 ft | 5 kts | 122° |
| 2026-04-26 09:06 | 25.24604 | 55.37123 | 31 ft | 11 kts | 121° |
| 2026-04-26 09:06 | 25.24559 | 55.37204 | 36 ft | 14 kts | 121° |
| 2026-04-26 09:07 | 25.24503 | 55.37304 | 38 ft | 17 kts | 121° |
| 2026-04-26 09:07 | 25.24437 | 55.37424 | 41 ft | 19 kts | 121° |
| 2026-04-26 09:07 | 25.24364 | 55.37553 | 44 ft | 21 kts | 121° |
| 2026-04-26 09:07 | 25.24331 | 55.37613 | 45 ft | 1 kts | 121° |
| 2026-04-26 09:08 | 25.24323 | 55.37628 | 46 ft | 4 kts | 121° |
| 2026-04-26 09:08 | 25.24304 | 55.37662 | 46 ft | 7 kts | 121° |
| 2026-04-26 09:08 | 25.24277 | 55.37710 | 47 ft | 0 kts | 121° |
| 2026-04-26 09:08 | 25.24269 | 55.37736 | 48 ft | 7 kts | 102° |
| 2026-04-26 09:09 | 25.24276 | 55.37771 | 42 ft | 4 kts | 44° |
| 2026-04-26 09:09 | 25.24289 | 55.37783 | 44 ft | 2 kts | 34° |
| 2026-04-26 09:09 | 25.24315 | 55.37802 | 44 ft | 7 kts | 34° |
| 2026-04-26 09:09 | 25.24346 | 55.37826 | 43 ft | 1 kts | 34° |
| 2026-04-26 09:10 | 25.24356 | 55.37833 | 42 ft | 0 kts | 34° |
| 2026-04-26 09:12 | 25.24374 | 55.37847 | 46 ft | 6 kts | 34° |
| 2026-04-26 09:12 | 25.24414 | 55.37877 | 46 ft | 8 kts | 34° |
| 2026-04-26 09:12 | 25.24466 | 55.37916 | 43 ft | 10 kts | 34° |
| 2026-04-26 09:13 | 25.24531 | 55.37965 | 47 ft | 12 kts | 34° |
| 2026-04-26 09:13 | 25.24581 | 55.38002 | 43 ft | 7 kts | 34° |
| 2026-04-26 09:13 | 25.24597 | 55.38014 | 45 ft | 5 kts | 34° |
| 2026-04-26 09:13 | 25.24634 | 55.38042 | 45 ft | 8 kts | 33° |
| 2026-04-26 09:14 | 25.24644 | 55.38049 | 47 ft | 0 kts | 32° |
| 2026-04-26 09:17 | 25.24653 | 55.38055 | 48 ft | 4 kts | 32° |
| 2026-04-26 09:17 | 25.24687 | 55.38079 | 43 ft | 7 kts | 32° |
| 2026-04-26 09:17 | 25.24727 | 55.38106 | 48 ft | 4 kts | 13° |
| 2026-04-26 09:18 | 25.24765 | 55.38101 | 43 ft | 6 kts | 327° |
| 2026-04-26 09:18 | 25.24790 | 55.38066 | 47 ft | 7 kts | 301° |
| 2026-04-26 09:18 | 25.24795 | 55.38058 | 47 ft | 0 kts | 301° |
| 2026-04-26 09:21 | 25.24847 | 55.37962 | 45 ft | 47 kts | 301° |
| 2026-04-26 09:21 | 25.25156 | 55.37410 | 33 ft | 118 kts | 301° |
| 2026-04-26 09:21 | 25.25670 | 55.36488 | 30 ft | 160 kts | 302° |
| 2026-04-26 09:21 | 25.26238 | 55.35429 | 553 ft | 156 kts | 302° |
| 2026-04-26 09:22 | 25.26814 | 55.34361 | 925 ft | 166 kts | 303° |
| 2026-04-26 09:22 | 25.27426 | 55.33279 | 1421 ft | 165 kts | 303° |
| 2026-04-26 09:22 | 25.28051 | 55.32172 | 1800 ft | 176 kts | 304° |
| 2026-04-26 09:22 | 25.28718 | 55.30982 | 2095 ft | 185 kts | 303° |
| 2026-04-26 09:23 | 25.29488 | 55.29893 | 2446 ft | 183 kts | 324° |
| 2026-04-26 09:23 | 25.30676 | 55.29437 | 2806 ft | 185 kts | 358° |
| 2026-04-26 09:23 | 25.31984 | 55.29526 | 3096 ft | 192 kts | 1° |
| 2026-04-26 09:23 | 25.33344 | 55.29582 | 3345 ft | 197 kts | 0° |
| 2026-04-26 09:24 | 25.34718 | 55.29613 | 3625 ft | 199 kts | 360° |
| 2026-04-26 09:24 | 25.36158 | 55.29638 | 3812 ft | 218 kts | 359° |
| 2026-04-26 09:24 | 25.37744 | 55.29665 | 4156 ft | 234 kts | 360° |
| 2026-04-26 09:24 | 25.39372 | 55.29851 | 4809 ft | 240 kts | 17° |
| 2026-04-26 09:25 | 25.40789 | 55.30849 | 5480 ft | 247 kts | 45° |
| 2026-04-26 09:25 | 25.41889 | 55.32336 | 5946 ft | 263 kts | 50° |
| 2026-04-26 09:25 | 25.43017 | 55.33958 | 6228 ft | 283 kts | 50° |
| 2026-04-26 09:25 | 25.44232 | 55.35690 | 6774 ft | 290 kts | 50° |
| 2026-04-26 09:26 | 25.45492 | 55.37455 | 7438 ft | 292 kts | 50° |
| 2026-04-26 09:26 | 25.46773 | 55.39224 | 8093 ft | 296 kts | 49° |
| 2026-04-26 09:26 | 25.48075 | 55.41007 | 8748 ft | 300 kts | 49° |
| 2026-04-26 09:26 | 25.49387 | 55.42819 | 9420 ft | 303 kts | 50° |
| 2026-04-26 09:27 | 25.50689 | 55.44683 | 10058 ft | 308 kts | 51° |
| 2026-04-26 09:27 | 25.51982 | 55.46654 | 10286 ft | 327 kts | 59° |
| 2026-04-26 09:27 | 25.52734 | 55.49100 | 10457 ft | 347 kts | 82° |
| 2026-04-26 09:27 | 25.52620 | 55.51808 | 10684 ft | 361 kts | 105° |
| 2026-04-26 09:28 | 25.51612 | 55.54343 | 11263 ft | 360 kts | 123° |
| 2026-04-26 09:28 | 25.50226 | 55.56623 | 11881 ft | 362 kts | 127° |
| 2026-04-26 09:28 | 25.48763 | 55.58911 | 12499 ft | 364 kts | 127° |
| 2026-04-26 09:28 | 25.47327 | 55.61230 | 13107 ft | 367 kts | 126° |
| 2026-04-26 09:29 | 25.45921 | 55.63593 | 13732 ft | 369 kts | 125° |
| 2026-04-26 09:29 | 25.44527 | 55.65999 | 14264 ft | 373 kts | 124° |
| 2026-04-26 09:29 | 25.43224 | 55.68498 | 14730 ft | 379 kts | 117° |
| 2026-04-26 09:29 | 25.42247 | 55.71224 | 15254 ft | 384 kts | 109° |
| 2026-04-26 09:30 | 25.41595 | 55.74112 | 15740 ft | 389 kts | 104° |
| 2026-04-26 09:30 | 25.40993 | 55.77045 | 16241 ft | 393 kts | 104° |
| 2026-04-26 09:30 | 25.40370 | 55.80000 | 16738 ft | 397 kts | 104° |
| 2026-04-26 09:30 | 25.39740 | 55.82956 | 17190 ft | 401 kts | 104° |
| 2026-04-26 09:31 | 25.39096 | 55.85965 | 17696 ft | 404 kts | 104° |
| 2026-04-26 09:31 | 25.38442 | 55.89019 | 18168 ft | 408 kts | 104° |
| 2026-04-26 09:31 | 25.37783 | 55.92094 | 18572 ft | 412 kts | 104° |
| 2026-04-26 09:31 | 25.37121 | 55.95189 | 18993 ft | 415 kts | 104° |
| 2026-04-26 09:32 | 25.36452 | 55.98312 | 19417 ft | 418 kts | 104° |
| 2026-04-26 09:32 | 25.35778 | 56.01456 | 19831 ft | 421 kts | 102° |
| 2026-04-26 09:32 | 25.35123 | 56.04611 | 20213 ft | 424 kts | 104° |
| 2026-04-26 09:32 | 25.34449 | 56.07748 | 20641 ft | 426 kts | 105° |
| 2026-04-26 09:33 | 25.33749 | 56.10959 | 21015 ft | 430 kts | 105° |
| 2026-04-26 09:33 | 25.33051 | 56.14174 | 21437 ft | 432 kts | 104° |
| 2026-04-26 09:33 | 25.32581 | 56.17473 | 21818 ft | 437 kts | 96° |
| 2026-04-26 09:33 | 25.32323 | 56.20838 | 22212 ft | 440 kts | 96° |
| 2026-04-26 09:34 | 25.32050 | 56.24229 | 22586 ft | 443 kts | 97° |
| 2026-04-26 09:34 | 25.31786 | 56.27411 | 22969 ft | 446 kts | 97° |
| 2026-04-26 09:34 | 25.31499 | 56.30841 | 23352 ft | 449 kts | 97° |
| 2026-04-26 09:34 | 25.31210 | 56.34291 | 23672 ft | 453 kts | 97° |
| 2026-04-26 09:35 | 25.30919 | 56.37762 | 24039 ft | 454 kts | 97° |
| 2026-04-26 09:35 | 25.30710 | 56.41218 | 24315 ft | 458 kts | 93° |
| 2026-04-26 09:35 | 25.30619 | 56.44749 | 24637 ft | 461 kts | 93° |
| 2026-04-26 09:35 | 25.30519 | 56.48299 | 24963 ft | 463 kts | 93° |
| 2026-04-26 09:36 | 25.30418 | 56.51702 | 25270 ft | 465 kts | 93° |
| 2026-04-26 09:36 | 25.30312 | 56.55218 | 25589 ft | 468 kts | 94° |
| 2026-04-26 09:36 | 25.29977 | 56.58805 | 25910 ft | 469 kts | 102° |
| 2026-04-26 09:36 | 25.29217 | 56.62265 | 26258 ft | 470 kts | 110° |
| 2026-04-26 09:37 | 25.28047 | 56.65643 | 26609 ft | 470 kts | 116° |
| 2026-04-26 09:37 | 25.26757 | 56.68981 | 26972 ft | 474 kts | 115° |
| 2026-04-26 09:37 | 25.25477 | 56.72353 | 27367 ft | 476 kts | 115° |
| 2026-04-26 09:37 | 25.24193 | 56.75750 | 27751 ft | 479 kts | 115° |
| 2026-04-26 09:38 | 25.22901 | 56.79165 | 28158 ft | 483 kts | 115° |
| 2026-04-26 09:38 | 25.21606 | 56.82585 | 28558 ft | 486 kts | 115° |
| 2026-04-26 09:38 | 25.20291 | 56.86049 | 28981 ft | 489 kts | 115° |
| 2026-04-26 09:38 | 25.18970 | 56.89523 | 29384 ft | 492 kts | 115° |
| 2026-04-26 09:39 | 25.17658 | 56.92970 | 29821 ft | 495 kts | 115° |
| 2026-04-26 09:39 | 25.16314 | 56.96497 | 30167 ft | 499 kts | 115° |
| 2026-04-26 09:39 | 25.14959 | 57.00049 | 30462 ft | 504 kts | 115° |
| 2026-04-26 09:39 | 25.13592 | 57.03632 | 30778 ft | 508 kts | 114° |
| 2026-04-26 09:40 | 25.12212 | 57.07245 | 31091 ft | 512 kts | 114° |
| 2026-04-26 09:40 | 25.10821 | 57.10886 | 31390 ft | 516 kts | 114° |
| 2026-04-26 09:40 | 25.09416 | 57.14558 | 31700 ft | 521 kts | 113° |
| 2026-04-26 09:40 | 25.08005 | 57.18244 | 32004 ft | 525 kts | 113° |
| 2026-04-26 09:41 | 25.06577 | 57.21971 | 32306 ft | 529 kts | 113° |
| 2026-04-26 09:41 | 25.05142 | 57.25714 | 32626 ft | 532 kts | 112° |
| 2026-04-26 09:41 | 25.03693 | 57.29488 | 32916 ft | 536 kts | 112° |
| 2026-04-26 09:41 | 25.02231 | 57.33293 | 33222 ft | 540 kts | 112° |
| 2026-04-26 09:42 | 25.00776 | 57.37077 | 33522 ft | 544 kts | 112° |
| 2026-04-26 09:42 | 24.99297 | 57.40920 | 33824 ft | 547 kts | 111° |
| 2026-04-26 09:42 | 24.97801 | 57.44803 | 34124 ft | 550 kts | 111° |
| 2026-04-26 09:42 | 24.96303 | 57.48685 | 34461 ft | 551 kts | 111° |
| 2026-04-26 09:43 | 24.94802 | 57.52574 | 34892 ft | 551 kts | 111° |
| 2026-04-26 09:43 | 24.93304 | 57.56450 | 35331 ft | 550 kts | 111° |
| 2026-04-26 09:43 | 24.91800 | 57.60338 | 35785 ft | 549 kts | 111° |
| 2026-04-26 09:43 | 24.90303 | 57.64204 | 36237 ft | 548 kts | 111° |
| 2026-04-26 09:44 | 24.88812 | 57.68054 | 36660 ft | 547 kts | 111° |
| 2026-04-26 09:44 | 24.87314 | 57.71917 | 36831 ft | 552 kts | 111° |
| 2026-04-26 09:44 | 24.85803 | 57.75812 | 36826 ft | 548 kts | 111° |
| 2026-04-26 09:45 | 24.83068 | 57.83562 | 36822 ft | 546 kts | 104° |
| 2026-04-26 09:45 | 24.81359 | 57.91700 | 36824 ft | 545 kts | 99° |
| 2026-04-26 09:46 | 24.79685 | 57.99987 | 36823 ft | 562 kts | 100° |
| 2026-04-26 09:46 | 24.78251 | 58.07020 | 36821 ft | 567 kts | 100° |
| 2026-04-26 09:47 | 24.76514 | 58.15499 | 36821 ft | 567 kts | 100° |
| 2026-04-26 09:47 | 24.74492 | 58.25358 | 36821 ft | 567 kts | 100° |
| 2026-04-26 09:48 | 24.73035 | 58.32444 | 36817 ft | 567 kts | 100° |
| 2026-04-26 09:48 | 24.71290 | 58.40905 | 36819 ft | 567 kts | 100° |
| 2026-04-26 09:49 | 24.69552 | 58.49312 | 36818 ft | 566 kts | 100° |
| 2026-04-26 09:49 | 24.67797 | 58.57770 | 36820 ft | 566 kts | 100° |
| 2026-04-26 09:50 | 24.66053 | 58.66152 | 36816 ft | 565 kts | 100° |
| 2026-04-26 09:50 | 24.64295 | 58.74578 | 36815 ft | 565 kts | 100° |
| 2026-04-26 09:51 | 24.62535 | 58.82986 | 36813 ft | 565 kts | 100° |
| 2026-04-26 09:51 | 24.60767 | 58.91411 | 36816 ft | 564 kts | 100° |
| 2026-04-26 09:52 | 24.58999 | 58.99809 | 36815 ft | 564 kts | 100° |
| 2026-04-26 09:52 | 24.56348 | 59.12360 | 36811 ft | 563 kts | 100° |
| 2026-04-26 09:53 | 24.54568 | 59.20753 | 36810 ft | 562 kts | 100° |
| 2026-04-26 09:53 | 24.52791 | 59.29109 | 36805 ft | 561 kts | 100° |
| 2026-04-26 09:54 | 24.51015 | 59.37427 | 36810 ft | 561 kts | 100° |
| 2026-04-26 09:54 | 24.49231 | 59.45760 | 36808 ft | 560 kts | 101° |
| 2026-04-26 09:55 | 24.47443 | 59.54093 | 36809 ft | 560 kts | 101° |
| 2026-04-26 09:55 | 24.45651 | 59.62420 | 36811 ft | 559 kts | 101° |
| 2026-04-26 09:56 | 24.43864 | 59.70697 | 36806 ft | 559 kts | 101° |
| 2026-04-26 09:56 | 24.42065 | 59.79007 | 36806 ft | 559 kts | 101° |
| 2026-04-26 09:57 | 24.40267 | 59.87292 | 36807 ft | 558 kts | 101° |
| 2026-04-26 09:57 | 24.38463 | 59.95578 | 36802 ft | 557 kts | 101° |
| 2026-04-26 09:58 | 24.36658 | 60.03848 | 36801 ft | 557 kts | 101° |
| 2026-04-26 09:58 | 24.34862 | 60.12056 | 36804 ft | 556 kts | 101° |
| 2026-04-26 09:59 | 24.33048 | 60.20329 | 36803 ft | 556 kts | 101° |
| 2026-04-26 09:59 | 24.31235 | 60.28575 | 36800 ft | 556 kts | 101° |
| 2026-04-26 10:00 | 24.29429 | 60.36767 | 36800 ft | 556 kts | 101° |
| 2026-04-26 10:00 | 24.27607 | 60.45011 | 36801 ft | 557 kts | 101° |
| 2026-04-26 10:01 | 24.25783 | 60.53237 | 36805 ft | 556 kts | 101° |
| 2026-04-26 10:01 | 24.23952 | 60.61474 | 36803 ft | 555 kts | 101° |
| 2026-04-26 10:02 | 24.22119 | 60.69701 | 36803 ft | 555 kts | 101° |
| 2026-04-26 10:02 | 24.20295 | 60.77862 | 36801 ft | 554 kts | 101° |
| 2026-04-26 10:03 | 24.18461 | 60.86072 | 36804 ft | 554 kts | 101° |
| 2026-04-26 10:03 | 24.16623 | 60.94280 | 36797 ft | 554 kts | 102° |
| 2026-04-26 10:04 | 24.14783 | 61.02471 | 36797 ft | 553 kts | 102° |
| 2026-04-26 10:04 | 24.12964 | 61.10537 | 36800 ft | 531 kts | 102° |
| 2026-04-26 10:05 | 24.12095 | 61.14374 | 36800 ft | 520 kts | 101° |
| 2026-04-26 10:05 | 24.11229 | 61.18208 | 36802 ft | 519 kts | 101° |
| 2026-04-26 10:05 | 24.09484 | 61.25937 | 36801 ft | 523 kts | 101° |
| 2026-04-26 10:06 | 24.07897 | 61.33695 | 36803 ft | 520 kts | 95° |
| 2026-04-26 10:06 | 24.07322 | 61.41558 | 36799 ft | 517 kts | 90° |
| 2026-04-26 10:07 | 24.06861 | 61.49406 | 36798 ft | 516 kts | 91° |
| 2026-04-26 10:07 | 24.06391 | 61.57240 | 36799 ft | 515 kts | 91° |
| 2026-04-26 10:08 | 24.05921 | 61.65042 | 36795 ft | 514 kts | 91° |
| 2026-04-26 10:08 | 24.05449 | 61.72806 | 36790 ft | 513 kts | 91° |
| 2026-04-26 10:09 | 24.04972 | 61.80585 | 36785 ft | 513 kts | 91° |
| 2026-04-26 10:09 | 24.04490 | 61.88387 | 36780 ft | 512 kts | 91° |
| 2026-04-26 10:10 | 24.04007 | 61.96138 | 36785 ft | 512 kts | 91° |
| 2026-04-26 10:10 | 24.03518 | 62.03915 | 36788 ft | 511 kts | 91° |
| 2026-04-26 10:11 | 24.03027 | 62.11668 | 36786 ft | 511 kts | 91° |
| 2026-04-26 10:11 | 24.02532 | 62.19421 | 36781 ft | 511 kts | 91° |
| 2026-04-26 10:12 | 24.02034 | 62.27172 | 36779 ft | 511 kts | 91° |
| 2026-04-26 10:12 | 24.01531 | 62.34917 | 36788 ft | 511 kts | 91° |
| 2026-04-26 10:13 | 24.01027 | 62.42629 | 36786 ft | 510 kts | 91° |
| 2026-04-26 10:13 | 24.00517 | 62.50376 | 36783 ft | 510 kts | 92° |
| 2026-04-26 10:14 | 24.00003 | 62.58111 | 36785 ft | 510 kts | 92° |
| 2026-04-26 10:14 | 23.99484 | 62.65871 | 36796 ft | 510 kts | 92° |
| 2026-04-26 10:15 | 23.98962 | 62.73623 | 36788 ft | 510 kts | 92° |
| 2026-04-26 10:15 | 23.98437 | 62.81356 | 36797 ft | 510 kts | 92° |
| 2026-04-26 10:16 | 23.97909 | 62.89065 | 36796 ft | 510 kts | 92° |
| 2026-04-26 10:16 | 23.97376 | 62.96800 | 36801 ft | 510 kts | 92° |
| 2026-04-26 10:17 | 23.96840 | 63.04527 | 36803 ft | 510 kts | 92° |
| 2026-04-26 10:17 | 23.96298 | 63.12270 | 36805 ft | 509 kts | 92° |
| 2026-04-26 10:18 | 23.95754 | 63.19994 | 36805 ft | 509 kts | 92° |
| 2026-04-26 10:18 | 23.95210 | 63.27661 | 36797 ft | 509 kts | 92° |
| 2026-04-26 10:19 | 23.94658 | 63.35395 | 36799 ft | 509 kts | 92° |
| 2026-04-26 10:19 | 23.94103 | 63.43109 | 36800 ft | 509 kts | 92° |
| 2026-04-26 10:20 | 23.93639 | 63.49521 | 36798 ft | 509 kts | 92° |
| 2026-04-26 10:20 | 23.92985 | 63.58491 | 36796 ft | 508 kts | 92° |
| 2026-04-26 10:21 | 23.92419 | 63.66191 | 36794 ft | 508 kts | 92° |
| 2026-04-26 10:21 | 23.91848 | 63.73912 | 36803 ft | 508 kts | 92° |
| 2026-04-26 10:22 | 23.91275 | 63.81597 | 36803 ft | 508 kts | 92° |
| 2026-04-26 10:22 | 23.90697 | 63.89303 | 36806 ft | 507 kts | 92° |
| 2026-04-26 10:23 | 23.90122 | 63.96930 | 36807 ft | 507 kts | 92° |
| 2026-04-26 10:23 | 23.89539 | 64.04608 | 36810 ft | 506 kts | 93° |
| 2026-04-26 10:24 | 23.88952 | 64.12273 | 36808 ft | 506 kts | 93° |
| 2026-04-26 10:24 | 23.88362 | 64.19937 | 36807 ft | 505 kts | 93° |
| 2026-04-26 10:25 | 23.87769 | 64.27593 | 36805 ft | 505 kts | 93° |
| 2026-04-26 10:25 | 23.87176 | 64.35199 | 36809 ft | 505 kts | 93° |
| 2026-04-26 10:26 | 23.86575 | 64.42857 | 36802 ft | 504 kts | 93° |
| 2026-04-26 10:26 | 23.85973 | 64.50482 | 36807 ft | 504 kts | 93° |
| 2026-04-26 10:27 | 23.85365 | 64.58122 | 36803 ft | 504 kts | 93° |
| 2026-04-26 10:27 | 23.84760 | 64.65691 | 36803 ft | 503 kts | 93° |
| 2026-04-26 10:28 | 23.84146 | 64.73322 | 36806 ft | 503 kts | 93° |
| 2026-04-26 10:28 | 23.83534 | 64.80926 | 36800 ft | 503 kts | 93° |
| 2026-04-26 10:29 | 23.83343 | 64.88547 | 36792 ft | 501 kts | 88° |
| 2026-04-26 10:29 | 23.83413 | 64.96157 | 36799 ft | 500 kts | 88° |
| 2026-04-26 10:30 | 23.83464 | 65.03761 | 36794 ft | 500 kts | 88° |
| 2026-04-26 10:30 | 23.83506 | 65.11336 | 36797 ft | 500 kts | 88° |
| 2026-04-26 10:31 | 23.83543 | 65.18943 | 36791 ft | 500 kts | 88° |
| 2026-04-26 10:31 | 23.83577 | 65.26548 | 36794 ft | 500 kts | 88° |
| 2026-04-26 10:32 | 23.83602 | 65.32862 | 36794 ft | 500 kts | 88° |
| 2026-04-26 10:32 | 23.83633 | 65.41707 | 36793 ft | 500 kts | 88° |
| 2026-04-26 10:33 | 23.83652 | 65.48076 | 36798 ft | 500 kts | 88° |
| 2026-04-26 10:33 | 23.83672 | 65.55629 | 36791 ft | 500 kts | 88° |
| 2026-04-26 10:34 | 23.83688 | 65.63238 | 36794 ft | 500 kts | 88° |
| 2026-04-26 10:34 | 23.83700 | 65.70842 | 36794 ft | 500 kts | 88° |
| 2026-04-26 10:35 | 23.83708 | 65.78432 | 36795 ft | 500 kts | 89° |
| 2026-04-26 10:35 | 23.83713 | 65.85983 | 36794 ft | 500 kts | 89° |
| 2026-04-26 10:36 | 23.83714 | 65.93585 | 36797 ft | 500 kts | 89° |
| 2026-04-26 10:36 | 23.83711 | 66.01194 | 36791 ft | 500 kts | 89° |
| 2026-04-26 10:37 | 23.83704 | 66.08795 | 36792 ft | 500 kts | 89° |
| 2026-04-26 10:37 | 23.83694 | 66.16341 | 36795 ft | 500 kts | 89° |
| 2026-04-26 10:38 | 23.83680 | 66.23934 | 36794 ft | 500 kts | 89° |
| 2026-04-26 10:38 | 23.83662 | 66.31536 | 36792 ft | 500 kts | 89° |
| 2026-04-26 10:39 | 23.83641 | 66.39104 | 36791 ft | 500 kts | 89° |
| 2026-04-26 10:39 | 23.83616 | 66.46734 | 36795 ft | 499 kts | 89° |
| 2026-04-26 10:40 | 23.83587 | 66.54285 | 36792 ft | 499 kts | 89° |
| 2026-04-26 10:40 | 23.83555 | 66.61872 | 36795 ft | 499 kts | 89° |
| 2026-04-26 10:41 | 23.83518 | 66.69469 | 36788 ft | 499 kts | 89° |
| 2026-04-26 10:41 | 23.83478 | 66.77054 | 36793 ft | 499 kts | 89° |
| 2026-04-26 10:42 | 23.83435 | 66.84632 | 36789 ft | 499 kts | 89° |
| 2026-04-26 10:42 | 23.83388 | 66.92175 | 36795 ft | 499 kts | 89° |
| 2026-04-26 10:43 | 23.83463 | 66.99760 | 36791 ft | 497 kts | 84° |
| 2026-04-26 10:43 | 23.84535 | 67.07208 | 36788 ft | 496 kts | 78° |
| 2026-04-26 10:44 | 23.85765 | 67.14572 | 36788 ft | 496 kts | 78° |
| 2026-04-26 10:44 | 23.86993 | 67.22016 | 36786 ft | 496 kts | 78° |
| 2026-04-26 10:45 | 23.88214 | 67.29421 | 36785 ft | 496 kts | 78° |
| 2026-04-26 10:45 | 23.89429 | 67.36808 | 36784 ft | 495 kts | 78° |
| 2026-04-26 10:46 | 23.90646 | 67.44233 | 36782 ft | 495 kts | 78° |
| 2026-04-26 10:46 | 23.91857 | 67.51643 | 36782 ft | 495 kts | 78° |
| 2026-04-26 10:47 | 23.93065 | 67.59052 | 36778 ft | 495 kts | 78° |
| 2026-04-26 10:47 | 23.94272 | 67.66485 | 36777 ft | 495 kts | 78° |
| 2026-04-26 10:48 | 23.95473 | 67.73897 | 36772 ft | 496 kts | 78° |
| 2026-04-26 10:48 | 23.96672 | 67.81329 | 36769 ft | 496 kts | 78° |
| 2026-04-26 10:49 | 23.97867 | 67.88758 | 36768 ft | 496 kts | 78° |
| 2026-04-26 10:49 | 23.99059 | 67.96182 | 36763 ft | 496 kts | 78° |
| 2026-04-26 10:50 | 24.00039 | 68.02313 | 36758 ft | 496 kts | 78° |
| 2026-04-26 10:50 | 24.01423 | 68.10992 | 36755 ft | 496 kts | 78° |
| 2026-04-26 10:51 | 24.03196 | 68.22160 | 36754 ft | 496 kts | 78° |
| 2026-04-26 10:52 | 24.04364 | 68.29548 | 36751 ft | 496 kts | 78° |
| 2026-04-26 10:52 | 24.05538 | 68.36995 | 36743 ft | 496 kts | 78° |
| 2026-04-26 10:53 | 24.06705 | 68.44426 | 36741 ft | 496 kts | 78° |
| 2026-04-26 10:53 | 24.07869 | 68.51859 | 36741 ft | 496 kts | 78° |
| 2026-04-26 10:54 | 24.09603 | 68.62980 | 36718 ft | 495 kts | 78° |
| 2026-04-26 10:54 | 24.10739 | 68.70427 | 36712 ft | 496 kts | 81° |
| 2026-04-26 10:55 | 24.10850 | 68.77981 | 36727 ft | 499 kts | 94° |
| 2026-04-26 10:55 | 24.09453 | 68.85430 | 36733 ft | 501 kts | 105° |
| 2026-04-26 10:56 | 24.07534 | 68.92762 | 36731 ft | 500 kts | 104° |
| 2026-04-26 10:56 | 24.05642 | 69.00094 | 36731 ft | 500 kts | 104° |
| 2026-04-26 10:57 | 24.03739 | 69.07418 | 36712 ft | 501 kts | 104° |
| 2026-04-26 10:57 | 24.01827 | 69.14745 | 36709 ft | 501 kts | 104° |
| 2026-04-26 10:58 | 23.99893 | 69.22138 | 36706 ft | 513 kts | 104° |
| 2026-04-26 10:58 | 23.97903 | 69.29734 | 36704 ft | 532 kts | 104° |
| 2026-04-26 10:59 | 23.95867 | 69.37482 | 36710 ft | 527 kts | 104° |
| 2026-04-26 10:59 | 23.93875 | 69.45045 | 36709 ft | 529 kts | 104° |
| 2026-04-26 11:00 | 23.91835 | 69.52775 | 36712 ft | 529 kts | 105° |
| 2026-04-26 11:00 | 23.89794 | 69.60496 | 36708 ft | 529 kts | 105° |
| 2026-04-26 11:01 | 23.87750 | 69.68209 | 36725 ft | 529 kts | 105° |
| 2026-04-26 11:01 | 23.85699 | 69.75929 | 36718 ft | 528 kts | 105° |
| 2026-04-26 11:02 | 23.83649 | 69.83631 | 36715 ft | 528 kts | 105° |
| 2026-04-26 11:02 | 23.81606 | 69.91290 | 36717 ft | 528 kts | 105° |
| 2026-04-26 11:03 | 23.79547 | 69.98993 | 36725 ft | 528 kts | 105° |
| 2026-04-26 11:03 | 23.77484 | 70.06690 | 36720 ft | 528 kts | 105° |
| 2026-04-26 11:04 | 23.75416 | 70.14395 | 36718 ft | 528 kts | 105° |
| 2026-04-26 11:04 | 23.73350 | 70.22071 | 36732 ft | 528 kts | 105° |
| 2026-04-26 11:05 | 23.71287 | 70.29719 | 36599 ft | 516 kts | 105° |
| 2026-04-26 11:05 | 23.70281 | 70.33439 | 36243 ft | 506 kts | 105° |
| 2026-04-26 11:05 | 23.69293 | 70.37094 | 35872 ft | 498 kts | 105° |
| 2026-04-26 11:06 | 23.68314 | 70.40711 | 35500 ft | 495 kts | 105° |
| 2026-04-26 11:06 | 23.67667 | 70.43102 | 35256 ft | 498 kts | 105° |
| 2026-04-26 11:06 | 23.66348 | 70.47970 | 34676 ft | 501 kts | 105° |
| 2026-04-26 11:06 | 23.65372 | 70.51566 | 34273 ft | 501 kts | 105° |
| 2026-04-26 11:07 | 23.64384 | 70.55202 | 33863 ft | 499 kts | 105° |
| 2026-04-26 11:07 | 23.63399 | 70.58821 | 33401 ft | 495 kts | 105° |
| 2026-04-26 11:07 | 23.62424 | 70.62399 | 32939 ft | 491 kts | 105° |
| 2026-04-26 11:07 | 23.61458 | 70.65945 | 32485 ft | 486 kts | 105° |
| 2026-04-26 11:08 | 23.60498 | 70.69464 | 32033 ft | 481 kts | 105° |
| 2026-04-26 11:08 | 23.59584 | 70.72809 | 31607 ft | 477 kts | 105° |
| 2026-04-26 11:08 | 23.58639 | 70.76265 | 31170 ft | 473 kts | 104° |
| 2026-04-26 11:08 | 23.57702 | 70.79693 | 30754 ft | 469 kts | 104° |
| 2026-04-26 11:09 | 23.56774 | 70.83080 | 30314 ft | 464 kts | 104° |
| 2026-04-26 11:09 | 23.55850 | 70.86452 | 29899 ft | 461 kts | 104° |
| 2026-04-26 11:09 | 23.54944 | 70.89755 | 29433 ft | 457 kts | 104° |
| 2026-04-26 11:09 | 23.54028 | 70.93098 | 28956 ft | 469 kts | 105° |
| 2026-04-26 11:10 | 23.53077 | 70.96572 | 28482 ft | 486 kts | 105° |
| 2026-04-26 11:10 | 23.52080 | 71.00113 | 28018 ft | 488 kts | 107° |
| 2026-04-26 11:10 | 23.50879 | 71.03559 | 27575 ft | 485 kts | 110° |
| 2026-04-26 11:10 | 23.49664 | 71.06987 | 27103 ft | 481 kts | 109° |
| 2026-04-26 11:11 | 23.48476 | 71.10376 | 26666 ft | 479 kts | 109° |
| 2026-04-26 11:11 | 23.47294 | 71.13752 | 26227 ft | 476 kts | 109° |
| 2026-04-26 11:11 | 23.46113 | 71.17119 | 25795 ft | 473 kts | 109° |
| 2026-04-26 11:11 | 23.44940 | 71.20458 | 25374 ft | 471 kts | 110° |
| 2026-04-26 11:12 | 23.43770 | 71.23782 | 24958 ft | 468 kts | 110° |
| 2026-04-26 11:12 | 23.42606 | 71.27082 | 24554 ft | 466 kts | 110° |
| 2026-04-26 11:12 | 23.41446 | 71.30370 | 24129 ft | 464 kts | 110° |
| 2026-04-26 11:12 | 23.40290 | 71.33643 | 23743 ft | 461 kts | 110° |
| 2026-04-26 11:13 | 23.39137 | 71.36906 | 23342 ft | 459 kts | 110° |
| 2026-04-26 11:13 | 23.38006 | 71.40106 | 22887 ft | 457 kts | 110° |
| 2026-04-26 11:13 | 23.36867 | 71.43324 | 22420 ft | 453 kts | 110° |
| 2026-04-26 11:13 | 23.35738 | 71.46512 | 21971 ft | 450 kts | 110° |
| 2026-04-26 11:14 | 23.34612 | 71.49687 | 21528 ft | 447 kts | 110° |
| 2026-04-26 11:14 | 23.33501 | 71.52820 | 21056 ft | 444 kts | 110° |
| 2026-04-26 11:14 | 23.32392 | 71.55945 | 20672 ft | 437 kts | 110° |
| 2026-04-26 11:14 | 23.31678 | 71.57953 | 20514 ft | 425 kts | 110° |
| 2026-04-26 11:15 | 23.30279 | 71.61884 | 19790 ft | 410 kts | 110° |
| 2026-04-26 11:15 | 23.29256 | 71.64765 | 19065 ft | 406 kts | 110° |
| 2026-04-26 11:15 | 23.28593 | 71.66630 | 18612 ft | 404 kts | 110° |
| 2026-04-26 11:15 | 23.27235 | 71.70446 | 17639 ft | 399 kts | 110° |
| 2026-04-26 11:16 | 23.26576 | 71.72296 | 17148 ft | 395 kts | 110° |
| 2026-04-26 11:16 | 23.25586 | 71.75070 | 16404 ft | 391 kts | 110° |
| 2026-04-26 11:16 | 23.24608 | 71.77815 | 15661 ft | 387 kts | 111° |
| 2026-04-26 11:16 | 23.23638 | 71.80535 | 14945 ft | 383 kts | 111° |
| 2026-04-26 11:17 | 23.22679 | 71.83221 | 14244 ft | 379 kts | 111° |
| 2026-04-26 11:17 | 23.21729 | 71.85879 | 13568 ft | 376 kts | 111° |
| 2026-04-26 11:17 | 23.20786 | 71.88519 | 12759 ft | 373 kts | 111° |
| 2026-04-26 11:17 | 23.20151 | 71.91242 | 11876 ft | 374 kts | 94° |
| 2026-04-26 11:18 | 23.20255 | 71.94059 | 11006 ft | 375 kts | 85° |
| 2026-04-26 11:18 | 23.20486 | 71.96887 | 10317 ft | 372 kts | 85° |
| 2026-04-26 11:18 | 23.20714 | 71.99652 | 9872 ft | 361 kts | 85° |
| 2026-04-26 11:18 | 23.20934 | 72.02338 | 9421 ft | 352 kts | 85° |
| 2026-04-26 11:19 | 23.21148 | 72.04917 | 8948 ft | 343 kts | 85° |
| 2026-04-26 11:19 | 23.21358 | 72.07502 | 8493 ft | 335 kts | 85° |
| 2026-04-26 11:19 | 23.21554 | 72.10000 | 8017 ft | 329 kts | 85° |
| 2026-04-26 11:19 | 23.21742 | 72.12430 | 7568 ft | 322 kts | 85° |
| 2026-04-26 11:20 | 23.21920 | 72.14816 | 7162 ft | 316 kts | 85° |
| 2026-04-26 11:20 | 23.22058 | 72.16696 | 6854 ft | 311 kts | 85° |
| 2026-04-26 11:20 | 23.22230 | 72.19046 | 6454 ft | 311 kts | 85° |
| 2026-04-26 11:20 | 23.22402 | 72.21433 | 6065 ft | 325 kts | 85° |
| 2026-04-26 11:21 | 23.22575 | 72.23900 | 5659 ft | 325 kts | 85° |
| 2026-04-26 11:21 | 23.22742 | 72.26320 | 5251 ft | 317 kts | 85° |
| 2026-04-26 11:21 | 23.22908 | 72.28693 | 4845 ft | 309 kts | 85° |
| 2026-04-26 11:21 | 23.23066 | 72.30997 | 4449 ft | 303 kts | 85° |
| 2026-04-26 11:22 | 23.23216 | 72.33230 | 4090 ft | 295 kts | 85° |
| 2026-04-26 11:22 | 23.23360 | 72.35423 | 3997 ft | 286 kts | 85° |
| 2026-04-26 11:22 | 23.23503 | 72.37568 | 3986 ft | 283 kts | 85° |
| 2026-04-26 11:22 | 23.23647 | 72.39718 | 3980 ft | 288 kts | 85° |
| 2026-04-26 11:23 | 23.23795 | 72.41907 | 3979 ft | 292 kts | 85° |
| 2026-04-26 11:23 | 23.23942 | 72.44108 | 3984 ft | 293 kts | 85° |
| 2026-04-26 11:23 | 23.24085 | 72.46302 | 3979 ft | 292 kts | 85° |
| 2026-04-26 11:23 | 23.24230 | 72.48502 | 3978 ft | 290 kts | 86° |
| 2026-04-26 11:24 | 23.24384 | 72.50688 | 3976 ft | 288 kts | 85° |
| 2026-04-26 11:24 | 23.24536 | 72.52875 | 3978 ft | 290 kts | 85° |
| 2026-04-26 11:24 | 23.24685 | 72.55005 | 3971 ft | 280 kts | 85° |
| 2026-04-26 11:24 | 23.24826 | 72.57055 | 3977 ft | 262 kts | 85° |
| 2026-04-26 11:25 | 23.24961 | 72.58985 | 3826 ft | 255 kts | 85° |
| 2026-04-26 11:25 | 23.25095 | 72.60915 | 3446 ft | 257 kts | 85° |
| 2026-04-26 11:25 | 23.25236 | 72.62854 | 3065 ft | 256 kts | 85° |
| 2026-04-26 11:25 | 23.25377 | 72.64777 | 2692 ft | 254 kts | 85° |
| 2026-04-26 11:26 | 23.25513 | 72.66692 | 2324 ft | 252 kts | 85° |
| 2026-04-26 11:26 | 23.25640 | 72.68585 | 2041 ft | 246 kts | 86° |
| 2026-04-26 11:26 | 23.25765 | 72.70364 | 1980 ft | 231 kts | 85° |
| 2026-04-26 11:26 | 23.25881 | 72.72003 | 1979 ft | 203 kts | 85° |
| 2026-04-26 11:27 | 23.25704 | 72.73455 | 1982 ft | 196 kts | 118° |
| 2026-04-26 11:27 | 23.24796 | 72.74512 | 1972 ft | 187 kts | 157° |
| 2026-04-26 11:27 | 23.23596 | 72.74705 | 1989 ft | 171 kts | 195° |
| 2026-04-26 11:27 | 23.22464 | 72.74325 | 1977 ft | 169 kts | 201° |
| 2026-04-26 11:28 | 23.21338 | 72.73949 | 1975 ft | 169 kts | 200° |
| 2026-04-26 11:28 | 23.20220 | 72.73575 | 1978 ft | 168 kts | 200° |
| 2026-04-26 11:28 | 23.19098 | 72.73201 | 1980 ft | 169 kts | 201° |
| 2026-04-26 11:28 | 23.17966 | 72.72825 | 1976 ft | 169 kts | 200° |
| 2026-04-26 11:29 | 23.16848 | 72.72444 | 1974 ft | 167 kts | 202° |
| 2026-04-26 11:29 | 23.15816 | 72.71896 | 1957 ft | 166 kts | 217° |
| 2026-04-26 11:29 | 23.14904 | 72.71107 | 1771 ft | 169 kts | 224° |
| 2026-04-26 11:29 | 23.14053 | 72.70230 | 1559 ft | 164 kts | 226° |
| 2026-04-26 11:30 | 23.13278 | 72.69398 | 1349 ft | 150 kts | 227° |
| 2026-04-26 11:30 | 23.12800 | 72.68888 | 1225 ft | 142 kts | 227° |
| 2026-04-26 11:30 | 23.11871 | 72.67887 | 1018 ft | 147 kts | 228° |
| 2026-04-26 11:30 | 23.11144 | 72.67107 | 852 ft | 146 kts | 226° |
| 2026-04-26 11:31 | 23.10410 | 72.66325 | 664 ft | 148 kts | 220° |
| 2026-04-26 11:31 | 23.09703 | 72.65552 | 426 ft | 138 kts | 220° |
| 2026-04-26 11:31 | 23.09025 | 72.64834 | 289 ft | 137 kts | 216° |
| 2026-04-26 11:31 | 23.08375 | 72.64137 | 214 ft | 115 kts | 223° |
| 2026-04-26 11:32 | 23.07986 | 72.63731 | 211 ft | 52 kts | 227° |
| 2026-04-26 11:32 | 23.07776 | 72.63497 | 209 ft | 35 kts | 232° |
| 2026-04-26 11:32 | 23.07699 | 72.63296 | 200 ft | 20 kts | 257° |
| 2026-04-26 11:32 | 23.07678 | 72.63201 | 210 ft | 0 kts | 256° |
| 2026-04-26 11:33 | 23.07677 | 72.63197 | 209 ft | 0 kts | 256° |
| 2026-04-26 11:33 | 23.07674 | 72.63185 | 209 ft | 4 kts | 256° |
| 2026-04-26 11:33 | 23.07663 | 72.63147 | 210 ft | 7 kts | 246° |
| 2026-04-26 11:33 | 23.07626 | 72.63088 | 210 ft | 11 kts | 229° |
| 2026-04-26 11:34 | 23.07567 | 72.63027 | 207 ft | 13 kts | 223° |
| 2026-04-26 11:34 | 23.07501 | 72.62960 | 207 ft | 13 kts | 224° |
| 2026-04-26 11:34 | 23.07466 | 72.62890 | 196 ft | 10 kts | 279° |
| 2026-04-26 11:34 | 23.07502 | 72.62824 | 207 ft | 12 kts | 311° |
| 2026-04-26 11:35 | 23.07529 | 72.62759 | 197 ft | 10 kts | 254° |
| 2026-04-26 11:35 | 23.07520 | 72.62732 | 192 ft | 3 kts | 241° |
| 2026-04-26 11:35 | 23.07503 | 72.62711 | 193 ft | 4 kts | 224° |
| 2026-04-26 11:35 | 23.07489 | 72.62698 | 203 ft | 3 kts | 202° |
| 2026-04-26 11:36 | 23.07469 | 72.62698 | 193 ft | 1 kts | 152° |
| 2026-04-26 11:36 | 23.07457 | 72.62708 | 195 ft | 5 kts | 135° |
| 2026-04-26 11:36 | 23.07450 | 72.62716 | 198 ft | 1 kts | 135° |
| 2026-04-26 11:36 | 23.07443 | 72.62724 | 208 ft | 2 kts | 135° |
| 2026-04-26 11:37 | 23.07436 | 72.62732 | 208 ft | 0 kts | 134° |